Shiloh, Tennessee
Current Conditions -  °F | °C
As of 7:15 AM on Thursday 27 Nov 2014 (Local Time) from KSNH Reporting Station
Overcast Overcast  
Wind Chill: 30°   Ceiling: 2500
Heat Index: 37°   Visibility: 10mi
Dew Point: 28°   Wind: 10mph
Humidity: 70%   Direction: 340°NNW
Pressure: 30.36"   Gusts: NA
Location:  35.11°N, 88.36°W
Report Text: KSNH 271315Z AUTO 34009KT 10SM BKN025 OVC030 03/M02 A3036 RMK
Loading
Personal Weather Stations






























Interactive Weather Map New forecast layout! Learn more

10-Day Weather Forecast

Advertisements
Track Severe Weather on mobile